Time;durP1;ratioP1;P1;durP2;ratioP2;P2;SDS_P1;SDS_P2;PMS_P1;PMS_P2;Temp;Humidity;BMP_temperature;BMP_pressure;BME280_temperature;BME280_humidity;BME280_pressure;Samples;Min_cycle;Max_cycle;Signal;HPM_P1;HPM_P2
2022/08/15 00:01:59;;;;;;;4.80;2.77;;;23.20;99.90;;;;;;5034533;28;20240;-57
2022/08/15 00:04:28;;;;;;;6.40;2.90;;;23.10;99.90;;;;;;5037520;28;20236;-58
2022/08/15 00:07:01;;;;;;;5.27;2.70;;;23.10;99.90;;;;;;5034490;28;20715;-57
2022/08/15 00:09:29;;;;;;;6.33;3.00;;;23.10;99.90;;;;;;5033648;28;20320;-58
2022/08/15 00:12:19;;;;;;;7.57;2.90;;;23.00;99.90;;;;;;5028508;28;20221;-57
2022/08/15 00:15:05;;;;;;;4.80;2.73;;;22.90;99.90;;;;;;5034586;28;20247;-57
2022/08/15 00:17:37;;;;;;;3.67;2.57;;;22.90;99.90;;;;;;5032368;28;20223;-58
2022/08/15 00:20:18;;;;;;;7.33;2.80;;;22.90;99.90;;;;;;5023834;28;20225;-57
2022/08/15 00:23:00;;;;;;;3.83;2.67;;;22.90;99.90;;;;;;5034796;28;20580;-58
2022/08/15 00:25:29;;;;;;;5.23;3.03;;;22.90;99.90;;;;;;5034471;28;20250;-58
2022/08/15 00:28:05;;;;;;;5.03;2.83;;;22.80;99.90;;;;;;5034922;28;20251;-57
2022/08/15 00:30:33;;;;;;;5.60;2.80;;;22.80;99.90;;;;;;5031084;28;20320;-57
2022/08/15 00:33:21;;;;;;;4.87;3.07;;;22.80;99.90;;;;;;5028535;28;20242;-57
2022/08/15 00:35:56;;;;;;;6.27;2.80;;;22.70;99.90;;;;;;5034731;28;20747;-58
2022/08/15 00:38:45;;;;;;;3.63;2.73;;;22.80;99.90;;;;;;5034747;28;20231;-58
2022/08/15 00:44:07;;;;;;;4.60;2.70;;;22.60;99.90;;;;;;5034773;28;20236;-58
2022/08/15 00:46:39;;;;;;;4.17;2.90;;;22.60;99.90;;;;;;5035798;28;20236;-57
2022/08/15 00:49:09;;;;;;;4.53;2.80;;;22.60;99.90;;;;;;5034264;28;20665;-57
2022/08/15 00:51:45;;;;;;;5.60;2.87;;;22.60;99.90;;;;;;5032208;28;20244;-57
2022/08/15 00:54:25;;;;;;;4.67;2.90;;;22.60;99.90;;;;;;5018134;28;20224;-58
2022/08/15 00:57:17;;;;;;;3.97;2.60;;;22.60;99.90;;;;;;5033570;28;20715;-58
2022/08/15 01:00:14;;;;;;;5.43;3.10;;;22.60;99.90;;;;;;5032658;28;20233;-58
2022/08/15 01:03:04;;;;;;;4.13;2.80;;;22.50;99.90;;;;;;5002644;28;20247;-57
2022/08/15 01:05:41;;;;;;;6.87;2.70;;;22.50;99.90;;;;;;4999054;28;20300;-58
2022/08/15 01:08:09;;;;;;;3.50;2.90;;;22.50;99.90;;;;;;5014754;28;20768;-57
2022/08/15 01:10:39;;;;;;;4.30;2.80;;;22.50;99.90;;;;;;5011821;28;20231;-58
2022/08/15 01:13:27;;;;;;;5.50;2.93;;;22.40;99.90;;;;;;5008495;28;20721;-59
2022/08/15 01:16:18;;;;;;;5.77;2.60;;;22.40;99.90;;;;;;5014737;28;20582;-57
2022/08/15 01:19:07;;;;;;;4.63;2.83;;;22.40;99.90;;;;;;5006235;28;20221;-57
2022/08/15 01:21:54;;;;;;;3.93;2.80;;;22.40;99.90;;;;;;5009649;28;20276;-57
2022/08/15 01:24:53;;;;;;;3.00;2.70;;;22.40;99.90;;;;;;4995335;28;20596;-56
2022/08/15 01:27:45;;;;;;;4.23;3.03;;;22.40;99.90;;;;;;5010522;28;20313;-58
2022/08/15 01:30:22;;;;;;;5.87;3.00;;;22.40;99.90;;;;;;5000156;28;20232;-58
2022/08/15 01:33:10;;;;;;;8.47;3.00;;;22.40;99.90;;;;;;5024649;28;20286;-58
2022/08/15 01:35:42;;;;;;;5.93;2.90;;;22.40;99.90;;;;;;5032214;28;20275;-58
2022/08/15 01:38:22;;;;;;;7.00;3.03;;;22.30;99.90;;;;;;5037809;28;20257;-56
2022/08/15 01:41:19;;;;;;;6.50;2.83;;;22.30;99.90;;;;;;5029722;28;20224;-58
2022/08/15 01:44:06;;;;;;;5.00;3.10;;;22.30;99.90;;;;;;5032338;28;20319;-57
2022/08/15 01:47:00;;;;;;;5.23;3.00;;;22.20;99.90;;;;;;5038930;28;20216;-57
2022/08/15 01:49:38;;;;;;;3.90;3.20;;;22.20;99.90;;;;;;5032705;28;20266;-57
2022/08/15 01:52:12;;;;;;;7.30;3.03;;;22.20;99.90;;;;;;5031025;28;20223;-57
2022/08/15 01:55:05;;;;;;;4.77;3.10;;;22.20;99.90;;;;;;5031809;28;20232;-57
2022/08/15 01:57:36;;;;;;;5.57;3.07;;;22.10;99.90;;;;;;5031906;28;20216;-57
2022/08/15 02:00:15;;;;;;;5.63;3.23;;;22.10;99.90;;;;;;5030155;28;20323;-57
2022/08/15 02:02:46;;;;;;;5.43;3.23;;;22.00;99.90;;;;;;5028474;28;20608;-58
2022/08/15 02:05:16;;;;;;;4.20;2.93;;;22.00;99.90;;;;;;5011884;28;20271;-57
2022/08/15 02:07:44;;;;;;;4.50;3.13;;;22.00;99.90;;;;;;5011615;28;20291;-58
2022/08/15 02:10:32;;;;;;;6.80;3.20;;;21.90;99.90;;;;;;4995096;28;20698;-57
2022/08/15 02:13:02;;;;;;;4.00;3.23;;;21.90;99.90;;;;;;5012497;28;20229;-57
2022/08/15 02:15:43;;;;;;;6.27;3.13;;;21.90;99.90;;;;;;5016692;28;20228;-58
2022/08/15 02:18:11;;;;;;;6.13;3.00;;;21.80;99.90;;;;;;5005717;28;20236;-58
2022/08/15 02:20:47;;;;;;;6.60;2.90;;;21.80;99.90;;;;;;5009049;28;20400;-57
2022/08/15 02:23:19;;;;;;;6.30;3.07;;;21.80;99.90;;;;;;5011975;28;20653;-58
2022/08/15 02:25:52;;;;;;;3.40;2.80;;;21.70;99.90;;;;;;5005634;28;20594;-58
2022/08/15 02:28:24;;;;;;;5.17;3.10;;;21.70;99.90;;;;;;5011806;28;20230;-57
2022/08/15 02:31:10;;;;;;;5.80;3.10;;;21.70;99.90;;;;;;5008815;28;20307;-57
2022/08/15 02:33:41;;;;;;;3.17;2.60;;;21.60;99.90;;;;;;5011679;28;20221;-58
2022/08/15 02:36:16;;;;;;;6.13;3.00;;;21.60;99.90;;;;;;5011577;28;20716;-58
2022/08/15 02:38:59;;;;;;;5.40;3.27;;;21.50;99.90;;;;;;5002999;28;20225;-58
2022/08/15 02:41:30;;;;;;;4.53;3.37;;;21.50;99.90;;;;;;5001088;28;20749;-57
2022/08/15 02:44:14;;;;;;;5.60;3.30;;;21.50;99.90;;;;;;4994284;28;20280;-59
2022/08/15 02:46:56;;;;;;;4.10;3.20;;;21.50;99.90;;;;;;5003962;28;20279;-58
2022/08/15 02:49:37;;;;;;;4.00;3.13;;;21.50;99.90;;;;;;5009400;28;20708;-57
2022/08/15 02:52:19;;;;;;;3.43;2.90;;;21.50;99.90;;;;;;5006768;28;20218;-58
2022/08/15 02:54:52;;;;;;;5.03;3.47;;;21.50;99.90;;;;;;4992277;28;20229;-58
2022/08/15 02:57:28;;;;;;;7.87;3.50;;;21.50;99.90;;;;;;5008878;28;20709;-57
2022/08/15 02:59:58;;;;;;;4.13;3.40;;;21.40;99.90;;;;;;4996490;28;20240;-58
2022/08/15 03:02:55;;;;;;;5.10;3.40;;;21.50;99.90;;;;;;5029841;28;20275;-58
2022/08/15 03:05:29;;;;;;;4.03;3.30;;;21.50;99.90;;;;;;5031120;28;20248;-57
2022/08/15 03:07:59;;;;;;;7.10;3.40;;;21.50;99.90;;;;;;5030998;28;20228;-57
2022/08/15 03:10:29;;;;;;;5.23;3.23;;;21.40;99.90;;;;;;5029038;28;20224;-57
2022/08/15 03:13:01;;;;;;;5.03;2.97;;;21.40;99.90;;;;;;5031116;28;20231;-58
2022/08/15 03:15:41;;;;;;;7.23;3.20;;;21.40;99.90;;;;;;5033973;28;20255;-57
2022/08/15 03:18:11;;;;;;;7.77;3.37;;;21.30;99.90;;;;;;5023127;28;20231;-57
2022/08/15 03:20:42;;;;;;;6.43;3.73;;;21.30;99.90;;;;;;5029373;28;20309;-57
2022/08/15 03:23:14;;;;;;;6.03;3.43;;;21.30;99.90;;;;;;5030994;28;20322;-58
2022/08/15 03:25:51;;;;;;;4.57;3.57;;;21.30;99.90;;;;;;5030919;28;20228;-57
2022/08/15 03:28:28;;;;;;;4.27;2.90;;;21.30;99.90;;;;;;5024862;28;20591;-57
2022/08/15 03:31:04;;;;;;;3.87;3.37;;;21.20;99.90;;;;;;5028332;28;20318;-57
2022/08/15 03:33:33;;;;;;;5.70;3.20;;;21.20;99.90;;;;;;5030741;28;20319;-58
2022/08/15 03:36:24;;;;;;;7.30;3.70;;;21.20;99.90;;;;;;5032011;28;20227;-58
2022/08/15 03:38:53;;;;;;;4.90;3.70;;;21.20;99.90;;;;;;5030733;28;20220;-57
2022/08/15 03:41:25;;;;;;;5.43;3.50;;;21.20;99.90;;;;;;5029906;28;20294;-56
2022/08/15 03:43:56;;;;;;;5.47;3.13;;;21.20;99.90;;;;;;5030480;28;20225;-58
2022/08/15 03:46:27;;;;;;;5.30;3.80;;;21.20;99.90;;;;;;5035554;28;20240;-58
2022/08/15 03:48:57;;;;;;;4.80;3.20;;;21.20;99.90;;;;;;5030705;28;20224;-57
2022/08/15 03:51:32;;;;;;;3.57;3.23;;;21.10;99.90;;;;;;5029129;28;20220;-57
2022/08/15 03:54:07;;;;;;;4.17;3.00;;;21.10;99.90;;;;;;5033030;28;20228;-57
2022/08/15 03:56:54;;;;;;;4.93;3.83;;;21.10;99.90;;;;;;5034108;28;20230;-58
2022/08/15 03:59:22;;;;;;;6.37;3.40;;;21.10;99.90;;;;;;5033013;28;20224;-58
2022/08/15 04:01:55;;;;;;;5.33;3.20;;;21.10;99.90;;;;;;5047281;28;20271;-57
2022/08/15 04:04:28;;;;;;;5.20;3.70;;;21.10;99.90;;;;;;5034049;28;20244;-57
2022/08/15 04:06:56;;;;;;;6.33;3.30;;;21.10;99.90;;;;;;5033897;28;20741;-58
2022/08/15 04:09:32;;;;;;;5.17;3.53;;;21.00;99.90;;;;;;5031933;28;20239;-57
2022/08/15 04:12:12;;;;;;;4.83;3.67;;;21.00;99.90;;;;;;5025625;28;20277;-57
2022/08/15 04:14:54;;;;;;;3.97;3.67;;;21.10;99.90;;;;;;5050447;28;20698;-57
2022/08/15 04:17:23;;;;;;;5.40;3.80;;;21.00;99.90;;;;;;5033887;28;20771;-57
2022/08/15 04:20:12;;;;;;;3.83;3.50;;;21.00;99.90;;;;;;5023985;28;20226;-57
2022/08/15 04:23:01;;;;;;;6.93;4.00;;;21.00;99.90;;;;;;5033837;28;20223;-58
2022/08/15 04:25:31;;;;;;;3.57;3.20;;;21.00;99.90;;;;;;5033901;28;20239;-58
2022/08/15 04:28:22;;;;;;;7.63;4.00;;;21.00;99.90;;;;;;5029791;28;20283;-58
2022/08/15 04:31:08;;;;;;;5.50;3.70;;;21.00;99.90;;;;;;5030282;28;20228;-58
2022/08/15 04:33:42;;;;;;;7.20;3.93;;;21.10;99.90;;;;;;5033462;28;20782;-56
2022/08/15 04:36:31;;;;;;;4.17;3.40;;;21.10;99.90;;;;;;5033248;28;20631;-58
2022/08/15 04:39:03;;;;;;;4.10;3.67;;;21.10;99.90;;;;;;5034813;28;20315;-58
2022/08/15 04:41:43;;;;;;;8.50;4.00;;;21.20;99.90;;;;;;5031310;28;20308;-58
2022/08/15 04:44:18;;;;;;;5.10;4.20;;;21.30;99.90;;;;;;5033317;28;20347;-58
2022/08/15 04:46:53;;;;;;;8.13;3.80;;;21.30;99.90;;;;;;5033785;28;20769;-58
2022/08/15 04:49:23;;;;;;;4.60;3.70;;;21.30;99.90;;;;;;5025833;28;20235;-58
2022/08/15 04:51:51;;;;;;;8.87;3.93;;;21.40;99.90;;;;;;5031866;28;20221;-57
2022/08/15 04:54:22;;;;;;;6.20;3.90;;;21.40;99.90;;;;;;5040096;28;20699;-58
2022/08/15 04:57:12;;;;;;;4.87;3.70;;;21.40;99.90;;;;;;5036129;28;20211;-57
2022/08/15 04:59:46;;;;;;;6.77;3.83;;;21.50;99.90;;;;;;5022383;28;20232;-56
2022/08/15 05:02:39;;;;;;;4.50;4.10;;;21.60;99.90;;;;;;5038920;28;20232;-57
2022/08/15 05:05:31;;;;;;;7.97;3.60;;;21.60;99.90;;;;;;5047816;28;20332;-57
2022/08/15 05:08:06;;;;;;;4.73;3.73;;;21.70;99.90;;;;;;5049373;28;20235;-57
2022/08/15 05:10:45;;;;;;;5.23;3.67;;;21.80;99.90;;;;;;5031702;28;20235;-57
2022/08/15 05:13:18;;;;;;;6.67;4.13;;;21.90;99.90;;;;;;5025410;28;20290;-57
2022/08/15 05:15:49;;;;;;;6.07;3.90;;;22.00;99.90;;;;;;5032845;28;20229;-57
2022/08/15 05:18:29;;;;;;;6.23;3.80;;;22.10;99.90;;;;;;5036478;28;20232;-57
2022/08/15 05:20:59;;;;;;;7.30;3.50;;;22.20;99.90;;;;;;5030411;28;20683;-57
2022/08/15 05:23:31;;;;;;;7.60;3.73;;;22.30;99.90;;;;;;5032590;28;20221;-57
2022/08/15 05:26:17;;;;;;;4.77;4.00;;;22.40;99.90;;;;;;5032612;28;20742;-57
2022/08/15 05:29:06;;;;;;;5.80;4.27;;;22.50;99.90;;;;;;5033526;28;20221;-57
2022/08/15 05:31:35;;;;;;;6.23;4.10;;;22.60;99.90;;;;;;5049210;28;20236;-56
2022/08/15 05:34:10;;;;;;;7.53;3.90;;;22.60;99.90;;;;;;5039239;28;20310;-57
2022/08/15 05:36:50;;;;;;;4.20;3.80;;;22.70;99.90;;;;;;5032471;28;20235;-57
2022/08/15 05:39:23;;;;;;;4.67;3.97;;;22.80;99.90;;;;;;5031217;28;20311;-57
2022/08/15 05:42:06;;;;;;;5.80;3.80;;;23.00;99.90;;;;;;5030108;28;20232;-58
2022/08/15 05:44:51;;;;;;;4.83;3.43;;;23.10;99.90;;;;;;5050312;28;20227;-57
2022/08/15 05:47:32;;;;;;;4.57;3.90;;;23.30;99.90;;;;;;5060030;28;20319;-57
2022/08/15 05:50:08;;;;;;;5.40;3.80;;;23.40;99.90;;;;;;5037036;28;20274;-57
2022/08/15 05:52:49;;;;;;;6.80;4.10;;;23.50;99.90;;;;;;5030900;28;20315;-58
2022/08/15 05:55:36;;;;;;;7.43;4.30;;;23.60;99.90;;;;;;5031153;28;20252;-58
2022/08/15 05:58:38;;;;;;;7.40;3.60;;;23.70;99.90;;;;;;5034476;28;20216;-57
2022/08/15 06:01:17;;;;;;;5.80;3.90;;;23.90;99.90;;;;;;5030777;28;20311;-56
2022/08/15 06:03:53;;;;;;;4.43;3.70;;;24.00;99.90;;;;;;5031435;28;20278;-56
2022/08/15 06:06:25;;;;;;;6.60;4.00;;;24.10;99.90;;;;;;5030616;28;20225;-56
2022/08/15 06:09:07;;;;;;;5.47;4.07;;;24.20;99.90;;;;;;5030011;28;20323;-56
2022/08/15 06:11:47;;;;;;;10.17;4.40;;;24.40;99.90;;;;;;5054865;28;20221;-57
2022/08/15 06:14:26;;;;;;;5.47;4.33;;;24.50;99.90;;;;;;5029057;28;20222;-56
2022/08/15 06:17:12;;;;;;;5.00;3.93;;;24.70;99.90;;;;;;5032235;28;20236;-56
2022/08/15 06:19:47;;;;;;;5.80;4.07;;;24.90;99.90;;;;;;5037270;28;20228;-57
2022/08/15 06:22:31;;;;;;;6.70;4.10;;;25.00;99.90;;;;;;5033267;28;20228;-57
2022/08/15 06:25:12;;;;;;;8.03;4.10;;;25.20;99.90;;;;;;5036562;28;20244;-57
2022/08/15 06:27:49;;;;;;;8.13;4.67;;;25.40;99.90;;;;;;5031446;28;20308;-57
2022/08/15 06:30:32;;;;;;;7.73;4.30;;;25.60;99.90;;;;;;5023645;28;20661;-57
2022/08/15 06:33:09;;;;;;;6.07;3.97;;;25.80;99.90;;;;;;5035561;28;20763;-57
2022/08/15 06:35:54;;;;;;;5.47;4.23;;;26.10;99.90;;;;;;5029517;28;20265;-57
2022/08/15 06:38:34;;;;;;;7.17;4.00;;;26.40;99.90;;;;;;5028848;28;20232;-57
2022/08/15 06:41:23;;;;;;;5.07;3.97;;;26.60;99.90;;;;;;5027061;28;20665;-57
2022/08/15 06:43:54;;;;;;;5.73;4.63;;;26.70;99.90;;;;;;5030623;28;20595;-56
2022/08/15 06:46:33;;;;;;;6.77;4.17;;;27.00;99.90;;;;;;5029847;28;20225;-57
2022/08/15 06:49:20;;;;;;;6.03;4.60;;;27.10;99.90;;;;;;5026626;28;20240;-57
2022/08/15 06:51:52;;;;;;;5.27;4.33;;;27.10;99.90;;;;;;5028872;28;20250;-57
2022/08/15 06:54:26;;;;;;;4.73;4.27;;;27.30;99.90;;;;;;5029736;28;20234;-56
2022/08/15 06:57:18;;;;;;;5.47;4.20;;;27.30;99.90;;;;;;5029080;28;20223;-56
2022/08/15 06:59:59;;;;;;;5.57;4.73;;;27.20;99.90;;;;;;5027976;28;20318;-57
2022/08/15 07:02:46;;;;;;;6.67;4.80;;;27.20;99.90;;;;;;5046668;28;20641;-57
2022/08/15 07:05:22;;;;;;;5.77;4.83;;;27.30;99.90;;;;;;5023225;28;20275;-57
2022/08/15 07:08:04;;;;;;;5.57;4.77;;;27.30;99.90;;;;;;5022652;28;20712;-56
2022/08/15 07:10:45;;;;;;;5.00;4.60;;;27.50;99.90;;;;;;5014936;28;20217;-58
2022/08/15 07:13:29;;;;;;;5.17;4.63;;;27.80;99.90;;;;;;5048333;28;20262;-57
2022/08/15 07:16:01;;;;;;;6.10;4.53;;;27.90;99.90;;;;;;5043708;28;20223;-56
2022/08/15 07:18:35;;;;;;;6.17;4.77;;;28.10;99.90;;;;;;5036449;28;20226;-57
2022/08/15 07:28:06;;;;;;;9.33;4.67;;;28.50;99.90;;;;;;4856247;29;20605;-62
2022/08/15 07:31:37;;;;;;;7.67;4.87;;;29.00;99.90;;;;;;4856013;29;20213;-63
2022/08/15 07:35:20;;;;;;;6.00;4.77;;;29.30;99.90;;;;;;4862908;29;20231;-63
2022/08/15 07:38:30;;;;;;;7.03;4.83;;;29.60;99.90;;;;;;4875051;29;20206;-63
2022/08/15 07:41:22;;;;;;;6.83;4.83;;;29.80;99.90;;;;;;4879241;29;20295;-63
2022/08/15 07:43:57;;;;;;;5.23;4.57;;;29.80;99.90;;;;;;4860105;29;20238;-63
2022/08/15 07:46:38;;;;;;;7.43;4.93;;;29.70;99.90;;;;;;4860901;29;20281;-61
2022/08/15 07:49:26;;;;;;;6.60;4.97;;;29.60;99.90;;;;;;4861166;29;20257;-63
2022/08/15 07:52:06;;;;;;;6.40;4.60;;;29.50;99.90;;;;;;4858003;29;20723;-63
2022/08/15 07:54:48;;;;;;;6.37;4.93;;;29.50;99.90;;;;;;4875107;29;20291;-63
2022/08/15 07:57:23;;;;;;;6.17;5.17;;;29.80;99.90;;;;;;4874953;29;20236;-63
2022/08/15 08:00:19;;;;;;;5.47;4.80;;;30.00;99.90;;;;;;4874752;29;20594;-63
2022/08/15 08:03:14;;;;;;;8.73;5.20;;;30.30;99.90;;;;;;4859898;29;20267;-63
2022/08/15 08:06:01;;;;;;;13.77;5.47;;;30.50;99.90;;;;;;4859029;29;20254;-63
2022/08/15 08:08:59;;;;;;;5.53;4.93;;;30.60;99.90;;;;;;4878537;29;20239;-63
2022/08/15 08:11:42;;;;;;;8.53;5.07;;;30.80;99.90;;;;;;4859831;29;20738;-63
2022/08/15 08:19:19;;;;;;;7.43;4.87;;;31.50;99.90;;;;;;4881830;29;20280;-58
2022/08/15 08:22:00;;;;;;;5.63;4.97;;;31.90;99.90;;;;;;4857424;29;20229;-58
2022/08/15 08:24:42;;;;;;;6.47;4.60;;;32.00;99.90;;;;;;4859564;29;20238;-59
2022/08/15 08:27:22;;;;;;;7.23;4.93;;;32.20;99.90;;;;;;4862493;29;20293;-58
2022/08/15 08:30:00;;;;;;;7.90;5.60;;;32.70;99.90;;;;;;4857977;29;20714;-58
2022/08/15 08:32:39;;;;;;;5.93;5.33;;;32.50;99.90;;;;;;4859382;29;20248;-60
2022/08/15 08:35:27;;;;;;;7.70;5.90;;;32.30;99.90;;;;;;4861399;29;20244;-58
2022/08/15 08:38:09;;;;;;;7.60;5.90;;;32.40;99.90;;;;;;4871327;29;20260;-60
2022/08/15 08:44:02;;;;;;;6.33;4.90;;;32.40;99.90;;;;;;4866071;29;20721;-58
2022/08/15 08:47:10;;;;;;;5.33;4.83;;;32.20;99.90;;;;;;4865664;29;20221;-58
2022/08/15 08:49:53;;;;;;;9.03;5.77;;;32.30;99.90;;;;;;4868441;29;20730;-60
2022/08/15 08:53:00;;;;;;;6.60;4.87;;;32.30;99.90;;;;;;4870135;29;20729;-59
2022/08/15 08:55:38;;;;;;;5.30;4.73;;;32.30;99.90;;;;;;4859945;29;20260;-59
2022/08/15 08:58:16;;;;;;;5.67;4.83;;;32.60;99.90;;;;;;4855179;29;20235;-58
2022/08/15 09:01:07;;;;;;;5.97;4.87;;;32.50;99.90;;;;;;4857360;29;20245;-59
2022/08/15 09:03:42;;;;;;;8.17;5.30;;;32.60;99.90;;;;;;4870415;29;20743;-59
2022/08/15 09:06:14;;;;;;;5.27;4.77;;;32.70;99.90;;;;;;4871978;29;20265;-59
2022/08/15 09:09:08;;;;;;;7.87;4.80;;;32.90;99.90;;;;;;4859443;29;20325;-59
2022/08/15 09:11:41;;;;;;;6.67;5.00;;;33.00;99.90;;;;;;4861184;29;20607;-59
2022/08/15 09:14:20;;;;;;;8.27;5.20;;;33.30;99.90;;;;;;4868579;29;20720;-59
2022/08/15 09:17:09;;;;;;;6.30;5.50;;;33.40;99.90;;;;;;4861858;29;20753;-58
2022/08/15 09:20:05;;;;;;;9.33;5.30;;;33.70;99.90;;;;;;4862836;29;20235;-59
2022/08/15 09:22:39;;;;;;;6.63;5.50;;;33.90;99.90;;;;;;4863366;29;20705;-58
2022/08/15 09:25:10;;;;;;;11.70;5.37;;;33.70;99.90;;;;;;4866889;29;20249;-58
2022/08/15 09:27:47;;;;;;;8.57;5.50;;;33.80;99.90;;;;;;4868078;29;20229;-58
2022/08/15 09:30:27;;;;;;;7.07;5.60;;;34.00;99.90;;;;;;4863875;29;20234;-59
2022/08/15 09:33:31;;;;;;;9.17;5.93;;;34.10;99.90;;;;;;4865612;29;20231;-59
2022/08/15 09:36:32;;;;;;;7.93;5.30;;;34.30;99.90;;;;;;4867173;29;20241;-59
2022/08/15 09:39:17;;;;;;;6.00;5.17;;;34.50;99.90;;;;;;4868806;29;20226;-58
2022/08/15 09:42:02;;;;;;;11.20;5.97;;;34.40;99.90;;;;;;4856858;29;20322;-58
2022/08/15 09:45:02;;;;;;;8.07;6.07;;;34.40;99.90;;;;;;4870263;29;20226;-58
2022/08/15 09:48:00;;;;;;;7.07;6.17;;;34.20;99.90;;;;;;4871644;29;20229;-58
2022/08/15 09:50:50;;;;;;;9.07;5.97;;;34.10;99.90;;;;;;4868308;29;20254;-59
2022/08/15 09:53:40;;;;;;;6.47;5.70;;;34.30;99.90;;;;;;4876445;29;20234;-59
2022/08/15 09:56:30;;;;;;;13.17;6.37;;;34.60;99.90;;;;;;4875315;29;20324;-58
2022/08/15 09:59:14;;;;;;;6.37;5.77;;;34.70;99.00;;;;;;4872385;29;20233;-58
2022/08/15 10:01:52;;;;;;;6.23;5.70;;;35.00;99.00;;;;;;4872836;29;20332;-58
2022/08/15 10:04:40;;;;;;;9.33;6.03;;;35.30;98.80;;;;;;4863823;29;20294;-59
2022/08/15 10:07:32;;;;;;;8.30;5.77;;;35.30;97.60;;;;;;4876357;29;20244;-58
2022/08/15 10:10:25;;;;;;;6.93;5.83;;;35.30;97.40;;;;;;4876162;29;20723;-59
2022/08/15 10:13:23;;;;;;;7.17;5.53;;;35.60;96.90;;;;;;4874476;29;20230;-59
2022/08/15 10:15:55;;;;;;;8.07;6.03;;;35.50;96.30;;;;;;4874667;29;20859;-58
2022/08/15 10:19:02;;;;;;;7.07;6.10;;;35.50;96.00;;;;;;4875624;29;20290;-59
2022/08/15 10:21:39;;;;;;;9.47;5.80;;;35.20;96.00;;;;;;4874963;29;20285;-62
2022/08/15 10:24:25;;;;;;;6.57;5.73;;;35.20;96.40;;;;;;4873547;29;20749;-63
2022/08/15 10:27:24;;;;;;;6.83;6.23;;;35.20;96.20;;;;;;4876030;29;20244;-63
2022/08/15 10:30:11;;;;;;;7.60;6.27;;;35.50;95.70;;;;;;4850509;29;20249;-62
2022/08/15 10:33:02;;;;;;;8.67;6.60;;;35.80;95.60;;;;;;4878825;29;20705;-63
2022/08/15 10:35:45;;;;;;;7.60;6.43;;;35.70;94.30;;;;;;4865716;29;20262;-63
2022/08/15 10:38:22;;;;;;;9.03;6.20;;;35.30;94.60;;;;;;4883978;29;20289;-62
2022/08/15 10:41:14;;;;;;;8.60;6.50;;;35.20;95.20;;;;;;4876331;29;20226;-63
2022/08/15 10:43:55;;;;;;;7.90;6.30;;;35.10;95.80;;;;;;4878585;29;20329;-63
2022/08/15 10:46:30;;;;;;;7.30;6.70;;;35.20;95.30;;;;;;4871832;29;20226;-62
2022/08/15 10:49:21;;;;;;;7.40;6.47;;;35.40;95.30;;;;;;4880797;29;20791;-62
2022/08/15 10:52:38;;;;;;;8.83;6.40;;;35.60;95.20;;;;;;4891444;29;20257;-62
2022/08/15 10:55:24;;;;;;;7.43;6.70;;;35.80;94.90;;;;;;4894595;29;20285;-62
2022/08/15 10:58:15;;;;;;;8.27;6.30;;;35.50;94.20;;;;;;4873887;29;20229;-62
2022/08/15 11:00:53;;;;;;;8.43;6.53;;;35.50;94.10;;;;;;4889167;29;20241;-62
2022/08/15 11:03:27;;;;;;;8.47;6.60;;;35.40;94.30;;;;;;4884986;29;20229;-62
2022/08/15 11:06:21;;;;;;;6.77;6.07;;;35.40;95.00;;;;;;4881023;29;20748;-62
2022/08/15 11:08:58;;;;;;;7.10;6.40;;;35.60;94.20;;;;;;4883023;29;20240;-62
2022/08/15 11:11:32;;;;;;;7.30;6.10;;;36.20;93.50;;;;;;4882472;29;20770;-62
2022/08/15 11:14:07;;;;;;;9.03;6.10;;;36.20;93.70;;;;;;4881630;29;20736;-62
2022/08/15 11:16:51;;;;;;;7.43;5.80;;;36.00;92.80;;;;;;4879400;29;20304;-62
2022/08/15 11:19:29;;;;;;;6.47;5.87;;;35.20;93.50;;;;;;4880196;29;20225;-61
2022/08/15 11:22:29;;;;;;;8.37;6.20;;;34.90;94.50;;;;;;4877798;29;20720;-62
2022/08/15 11:25:00;;;;;;;10.00;6.17;;;35.00;94.00;;;;;;4883160;29;20702;-62
2022/08/15 11:27:31;;;;;;;7.07;5.90;;;34.70;93.30;;;;;;4883051;29;20238;-62
2022/08/15 11:30:03;;;;;;;6.23;5.77;;;34.30;93.20;;;;;;4880307;29;20268;-62
2022/08/15 11:32:52;;;;;;;7.47;5.97;;;34.50;94.10;;;;;;4882145;29;20697;-62
2022/08/15 11:35:25;;;;;;;6.87;5.80;;;34.60;93.60;;;;;;4880891;29;20230;-62
2022/08/15 11:37:58;;;;;;;7.60;6.07;;;34.70;93.20;;;;;;4882663;29;20230;-63
2022/08/15 11:40:30;;;;;;;7.53;5.77;;;35.10;93.00;;;;;;4881702;29;20229;-62
2022/08/15 11:43:02;;;;;;;8.77;5.80;;;35.40;92.70;;;;;;4884138;29;20721;-62
2022/08/15 11:45:42;;;;;;;7.23;5.90;;;35.50;91.80;;;;;;4882810;29;20770;-62
2022/08/15 11:48:25;;;;;;;7.37;6.07;;;35.50;91.80;;;;;;4873260;29;20750;-62
2022/08/15 11:51:08;;;;;;;6.83;6.00;;;34.90;91.40;;;;;;4880063;29;20787;-60
2022/08/15 11:53:41;;;;;;;6.10;5.50;;;34.60;91.50;;;;;;4882691;29;20585;-62
2022/08/15 11:56:10;;;;;;;7.83;5.10;;;34.90;91.40;;;;;;4881136;29;20229;-61
2022/08/15 11:58:55;;;;;;;6.90;4.73;;;35.10;90.40;;;;;;4880135;29;20242;-62
2022/08/15 12:01:32;;;;;;;5.83;5.33;;;35.30;90.30;;;;;;4881244;29;20229;-62
2022/08/15 12:04:06;;;;;;;7.57;5.10;;;35.30;89.70;;;;;;4883506;29;20732;-62
2022/08/15 12:06:56;;;;;;;7.13;5.33;;;35.00;89.60;;;;;;4885094;29;20234;-62
2022/08/15 12:09:28;;;;;;;6.03;5.50;;;34.70;89.40;;;;;;4881645;29;20622;-62
2022/08/15 12:12:32;;;;;;;6.77;5.03;;;34.60;89.10;;;;;;4866018;29;20263;-63
2022/08/15 12:15:11;;;;;;;5.83;5.03;;;34.20;90.30;;;;;;4871273;29;20309;-62
2022/08/15 12:18:05;;;;;;;5.30;4.90;;;33.90;88.70;;;;;;4880863;29;20249;-62
2022/08/15 12:20:41;;;;;;;5.97;4.60;;;33.50;90.10;;;;;;4875708;29;20273;-62
2022/08/15 12:23:27;;;;;;;7.13;4.30;;;33.10;89.80;;;;;;4865600;29;20299;-62
2022/08/15 12:25:59;;;;;;;4.83;4.00;;;33.00;89.40;;;;;;4874652;29;20225;-62
2022/08/15 12:28:28;;;;;;;4.43;4.03;;;32.70;88.30;;;;;;4882053;29;20766;-62
2022/08/15 12:31:16;;;;;;;5.17;3.50;;;32.60;87.90;;;;;;4879599;29;20235;-61
2022/08/15 12:33:45;;;;;;;4.97;3.97;;;32.50;87.10;;;;;;4880818;29;20240;-61
2022/08/15 12:36:19;;;;;;;4.90;4.20;;;32.40;88.80;;;;;;4879551;29;20316;-62
2022/08/15 12:39:08;;;;;;;7.97;4.57;;;32.30;90.10;;;;;;4873428;29;20697;-62
2022/08/15 12:41:41;;;;;;;6.27;4.73;;;32.30;90.20;;;;;;4886772;29;20237;-62
2022/08/15 12:44:34;;;;;;;7.33;4.67;;;32.40;90.70;;;;;;4881144;29;20686;-62
2022/08/15 12:47:06;;;;;;;5.60;5.03;;;32.40;90.70;;;;;;4884014;29;20230;-63
2022/08/15 12:49:35;;;;;;;6.53;4.80;;;32.30;92.20;;;;;;4880277;29;20611;-62
2022/08/15 12:52:15;;;;;;;9.23;5.60;;;32.30;92.40;;;;;;4879678;29;20703;-63
2022/08/15 12:54:46;;;;;;;6.17;5.13;;;32.10;93.60;;;;;;4880068;29;20233;-62
2022/08/15 12:57:16;;;;;;;6.40;5.80;;;32.10;94.10;;;;;;4873114;29;20238;-62
2022/08/15 12:59:49;;;;;;;6.57;5.90;;;31.90;94.80;;;;;;4879329;29;20238;-58
2022/08/15 13:02:19;;;;;;;7.63;6.20;;;31.70;95.80;;;;;;4866523;29;20602;-59
2022/08/15 13:05:15;;;;;;;6.83;6.00;;;31.80;95.90;;;;;;4862438;29;20236;-58
2022/08/15 13:07:45;;;;;;;6.20;5.70;;;31.80;96.70;;;;;;4872214;29;20238;-58
2022/08/15 13:10:33;;;;;;;8.07;6.00;;;32.00;96.90;;;;;;4881801;29;20234;-58
2022/08/15 13:13:23;;;;;;;6.57;5.93;;;32.20;96.30;;;;;;4882029;29;20280;-59
2022/08/15 13:15:51;;;;;;;7.20;5.80;;;32.10;96.90;;;;;;4878733;29;20236;-58
2022/08/15 13:18:23;;;;;;;8.07;6.20;;;32.30;96.70;;;;;;4877272;29;20253;-58
2022/08/15 13:23:41;;;;;;;6.90;6.30;;;32.40;96.60;;;;;;4879960;29;20232;-58
2022/08/15 13:26:31;;;;;;;6.13;5.57;;;32.50;96.90;;;;;;4878637;29;20233;-59
2022/08/15 13:29:08;;;;;;;6.27;5.77;;;32.60;96.80;;;;;;4879408;29;20239;-58
2022/08/15 13:31:37;;;;;;;6.73;6.00;;;32.70;96.70;;;;;;4877521;29;20233;-58
2022/08/15 13:34:07;;;;;;;6.63;5.40;;;32.50;96.70;;;;;;4879579;29;20266;-58
2022/08/15 13:36:35;;;;;;;7.27;5.50;;;32.40;96.60;;;;;;4867650;29;20236;-58
2022/08/15 13:39:23;;;;;;;6.93;5.67;;;32.20;97.00;;;;;;4865676;29;20309;-58
2022/08/15 13:41:55;;;;;;;6.20;5.60;;;32.10;97.20;;;;;;4861797;29;20305;-58
2022/08/15 13:45:03;;;;;;;5.30;4.90;;;32.10;97.40;;;;;;4884048;29;20233;-58
2022/08/15 13:47:33;;;;;;;5.87;5.37;;;32.10;97.50;;;;;;4896936;29;20246;-59
2022/08/15 13:50:20;;;;;;;5.80;5.20;;;32.10;97.60;;;;;;4890054;29;20233;-58
2022/08/15 13:52:49;;;;;;;5.43;5.03;;;32.10;97.50;;;;;;4897509;29;20245;-58
2022/08/15 13:55:25;;;;;;;6.87;5.73;;;32.10;97.60;;;;;;4866154;29;20238;-59
2022/08/15 13:57:56;;;;;;;9.93;5.20;;;32.00;97.60;;;;;;4887821;29;20713;-58
2022/08/15 14:00:46;;;;;;;8.37;5.30;;;32.00;97.80;;;;;;4878062;29;20248;-59
2022/08/15 14:03:31;;;;;;;6.53;5.67;;;32.00;97.90;;;;;;4880318;29;20235;-59
2022/08/15 14:06:01;;;;;;;5.57;5.17;;;32.00;97.70;;;;;;4889298;29;20289;-58
2022/08/15 14:08:33;;;;;;;5.67;5.17;;;32.00;97.90;;;;;;4894565;29;20244;-58
2022/08/15 14:11:22;;;;;;;6.20;5.33;;;32.00;98.60;;;;;;4879746;29;20230;-59
2022/08/15 14:14:00;;;;;;;6.30;5.73;;;31.80;98.90;;;;;;4886484;29;20641;-58
2022/08/15 14:16:31;;;;;;;5.73;5.23;;;31.50;99.40;;;;;;4876068;29;20232;-59